createdAt,value
2022-12-10T00:00:01.637Z,13.22
2022-12-10T00:02:28.766Z,13.26
2022-12-10T00:04:56.052Z,13.31
2022-12-10T00:07:24.908Z,13.33
2022-12-10T00:09:52.076Z,13.31
2022-12-10T00:12:19.125Z,13.36
2022-12-10T00:14:46.193Z,13.34
2022-12-10T00:17:13.365Z,13.42
2022-12-10T00:19:40.384Z,13.41
2022-12-10T00:22:07.370Z,13.39
2022-12-10T00:24:34.376Z,13.41
2022-12-10T00:27:01.519Z,13.42
2022-12-10T00:29:31.246Z,13.44
2022-12-10T00:31:58.191Z,13.49
2022-12-10T00:34:25.172Z,13.52
2022-12-10T00:36:52.190Z,13.53
2022-12-10T00:39:21.983Z,13.57
2022-12-10T00:41:49.158Z,13.57
2022-12-10T00:44:17.109Z,13.60
2022-12-10T00:46:44.654Z,13.59
2022-12-10T00:49:12.590Z,13.55
2022-12-10T00:51:40.315Z,13.60
2022-12-10T00:54:09.029Z,13.54
2022-12-10T00:56:36.541Z,13.56
2022-12-10T00:59:03.880Z,13.53
2022-12-10T01:01:42.891Z,13.56
2022-12-10T01:04:15.966Z,13.58
2022-12-10T01:06:49.689Z,13.55
2022-12-10T01:09:20.919Z,13.58
2022-12-10T01:11:49.923Z,13.60
2022-12-10T01:14:21.642Z,13.61
2022-12-10T01:16:49.483Z,13.61
2022-12-10T01:19:17.133Z,13.54
2022-12-10T01:21:44.627Z,13.56
2022-12-10T01:24:11.814Z,13.56
2022-12-10T01:26:38.925Z,13.42
2022-12-10T01:29:06.681Z,13.46
2022-12-10T01:31:36.305Z,13.50
2022-12-10T01:34:05.344Z,13.51
2022-12-10T01:36:38.580Z,13.54
2022-12-10T01:39:07.893Z,13.53
2022-12-10T01:41:38.472Z,13.53
2022-12-10T01:44:11.381Z,13.54
2022-12-10T01:46:43.540Z,13.49
2022-12-10T01:49:16.725Z,13.49
2022-12-10T01:51:49.621Z,13.55
2022-12-10T01:54:25.192Z,13.56
2022-12-10T01:57:00.173Z,13.51
2022-12-10T01:59:28.186Z,13.53
2022-12-10T02:02:23.950Z,13.55
2022-12-10T02:05:06.262Z,13.59
2022-12-10T02:07:56.511Z,13.56
2022-12-10T02:10:51.512Z,13.66
2022-12-10T02:13:42.888Z,13.57
2022-12-10T02:16:16.280Z,13.60
2022-12-10T02:18:53.123Z,13.55
2022-12-10T02:21:26.054Z,13.61
2022-12-10T02:24:12.677Z,13.68
2022-12-10T02:27:07.774Z,13.73
2022-12-10T02:29:35.502Z,13.66
2022-12-10T02:32:10.321Z,13.71
2022-12-10T02:34:42.633Z,13.72
2022-12-10T02:37:17.161Z,13.73
2022-12-10T02:39:49.704Z,13.78
2022-12-10T02:42:19.529Z,13.76
2022-12-10T02:44:49.841Z,13.74
2022-12-10T02:47:18.955Z,13.73
2022-12-10T02:49:49.185Z,13.69
2022-12-10T02:52:20.326Z,13.70
2022-12-10T02:54:49.463Z,13.68
2022-12-10T02:57:37.820Z,13.68
2022-12-10T03:00:23.177Z,13.68
2022-12-10T03:03:19.245Z,13.70
2022-12-10T03:05:56.931Z,13.68
2022-12-10T03:08:50.857Z,13.70
2022-12-10T03:11:24.613Z,13.59
2022-12-10T03:14:14.545Z,13.62
2022-12-10T03:16:46.756Z,13.59
2022-12-10T03:19:19.344Z,13.60
2022-12-10T03:21:51.193Z,13.58
2022-12-10T03:24:19.545Z,13.64
2022-12-10T03:26:49.494Z,13.67
2022-12-10T03:29:23.601Z,13.64
2022-12-10T03:31:53.193Z,13.70
2022-12-10T03:34:20.941Z,13.58
2022-12-10T03:36:48.997Z,13.64
2022-12-10T03:39:17.410Z,13.57
2022-12-10T03:41:44.663Z,13.54
2022-12-10T03:44:11.793Z,13.54
2022-12-10T03:46:39.606Z,13.53
2022-12-10T03:49:07.007Z,13.45
2022-12-10T03:51:33.995Z,13.48
2022-12-10T03:54:01.180Z,13.48
2022-12-10T03:56:28.313Z,13.53
2022-12-10T03:58:55.327Z,13.54
2022-12-10T04:01:22.413Z,13.50
2022-12-10T04:03:49.551Z,13.48
2022-12-10T04:06:19.728Z,13.45
2022-12-10T04:08:48.258Z,13.43
2022-12-10T04:11:17.119Z,13.44
2022-12-10T04:14:03.181Z,13.42
2022-12-10T04:16:32.096Z,13.40
2022-12-10T04:19:08.059Z,13.39
2022-12-10T04:21:55.640Z,13.36
2022-12-10T04:24:44.069Z,13.31
2022-12-10T04:27:14.324Z,13.35
2022-12-10T04:29:41.524Z,13.41
2022-12-10T04:32:09.203Z,13.38
2022-12-10T04:34:43.825Z,13.39
2022-12-10T04:37:12.554Z,13.39
2022-12-10T04:39:40.533Z,13.39
2022-12-10T04:42:09.507Z,13.42
2022-12-10T04:44:37.261Z,13.40
2022-12-10T04:47:06.254Z,13.43
2022-12-10T04:49:33.790Z,13.35
2022-12-10T04:52:01.186Z,13.36
2022-12-10T04:54:29.308Z,13.40
2022-12-10T04:56:57.456Z,13.42
2022-12-10T04:59:25.011Z,13.38
2022-12-10T05:01:52.640Z,13.36
2022-12-10T05:04:20.487Z,13.40
2022-12-10T05:06:50.149Z,13.44
2022-12-10T05:09:17.945Z,13.45
2022-12-10T05:11:47.914Z,13.44
2022-12-10T05:14:16.393Z,13.44
2022-12-10T05:16:43.751Z,13.45
2022-12-10T05:19:11.812Z,13.49
2022-12-10T05:21:57.758Z,13.46
2022-12-10T05:24:24.754Z,13.42
2022-12-10T05:26:54.618Z,13.47
2022-12-10T05:29:21.701Z,13.46
2022-12-10T05:31:48.652Z,13.44
2022-12-10T05:34:16.062Z,13.39
2022-12-10T05:36:43.165Z,13.48
2022-12-10T05:39:11.932Z,13.45
2022-12-10T05:41:40.611Z,13.47
2022-12-10T05:44:09.099Z,13.44
2022-12-10T05:46:37.084Z,13.52
2022-12-10T05:49:06.621Z,13.57
2022-12-10T05:51:36.272Z,13.49
2022-12-10T05:54:04.589Z,13.54
2022-12-10T05:56:32.389Z,13.54
2022-12-10T05:59:02.540Z,13.51
2022-12-10T06:01:36.891Z,13.55
2022-12-10T06:04:06.163Z,13.59
2022-12-10T06:06:38.353Z,13.59
2022-12-10T06:09:07.190Z,13.56
2022-12-10T06:11:34.960Z,13.59
2022-12-10T06:14:03.030Z,13.62
2022-12-10T06:16:30.258Z,13.60
2022-12-10T06:18:58.600Z,13.68
2022-12-10T06:21:26.070Z,13.71
2022-12-10T06:23:54.222Z,13.67
2022-12-10T06:26:26.837Z,13.61
2022-12-10T06:28:55.183Z,13.63
2022-12-10T06:31:23.428Z,13.61
2022-12-10T06:33:50.754Z,13.68
2022-12-10T06:36:18.651Z,13.72
2022-12-10T06:38:46.903Z,13.75
2022-12-10T06:41:18.355Z,13.74
2022-12-10T06:43:48.230Z,13.79
2022-12-10T06:46:17.987Z,13.78
2022-12-10T06:48:46.212Z,13.78
2022-12-10T06:51:14.379Z,13.80
2022-12-10T06:53:42.551Z,13.91
2022-12-10T06:56:13.678Z,13.84
2022-12-10T06:58:43.329Z,13.76
2022-12-10T07:01:16.296Z,13.80
2022-12-10T07:03:44.363Z,13.95
2022-12-10T07:06:13.007Z,13.92
2022-12-10T07:08:40.087Z,13.88
2022-12-10T07:11:09.257Z,13.91
2022-12-10T07:13:37.501Z,13.86
2022-12-10T07:16:12.732Z,13.81
2022-12-10T07:18:39.913Z,13.89
2022-12-10T07:21:30.398Z,13.92
2022-12-10T07:24:03.321Z,13.84
2022-12-10T07:26:32.001Z,13.89
2022-12-10T07:29:03.250Z,13.81
2022-12-10T07:31:30.447Z,13.85
2022-12-10T07:33:59.593Z,13.93
2022-12-10T07:36:27.782Z,13.90
2022-12-10T07:38:55.723Z,14.01
2022-12-10T07:41:24.410Z,14.07
2022-12-10T07:43:52.257Z,14.05
2022-12-10T07:46:22.913Z,14.11
2022-12-10T07:48:50.649Z,14.12
2022-12-10T07:51:20.121Z,14.11
2022-12-10T07:53:47.132Z,14.11
2022-12-10T07:56:14.291Z,14.16
2022-12-10T07:58:46.140Z,14.13
2022-12-10T08:01:16.718Z,14.14
2022-12-10T08:03:44.444Z,14.16
2022-12-10T08:06:14.934Z,14.24
2022-12-10T08:08:43.219Z,14.26
2022-12-10T08:11:11.328Z,14.63
2022-12-10T08:13:38.900Z,14.75
2022-12-10T08:16:13.393Z,14.78
2022-12-10T08:18:44.028Z,14.76
2022-12-10T08:21:20.003Z,14.83
2022-12-10T08:23:47.682Z,14.87
2022-12-10T08:26:23.646Z,15.04
2022-12-10T08:28:51.824Z,15.20
2022-12-10T08:31:22.016Z,15.17
2022-12-10T08:33:49.145Z,15.26
2022-12-10T08:36:17.605Z,15.48
2022-12-10T08:38:45.420Z,15.79
2022-12-10T08:41:15.206Z,16.50
2022-12-10T08:43:42.746Z,17.18
2022-12-10T08:46:10.376Z,17.28
2022-12-10T08:48:38.316Z,17.29
2022-12-10T08:51:07.442Z,17.07
2022-12-10T08:53:34.957Z,16.90
2022-12-10T08:56:03.045Z,16.41
2022-12-10T08:58:30.211Z,16.28
2022-12-10T09:00:57.353Z,16.17
2022-12-10T09:03:25.179Z,15.88
2022-12-10T09:05:52.347Z,15.90
2022-12-10T09:08:19.784Z,15.85
2022-12-10T09:10:46.924Z,15.75
2022-12-10T09:13:13.897Z,15.76
2022-12-10T09:15:41.045Z,15.58
2022-12-10T09:18:08.078Z,15.60
2022-12-10T09:20:35.157Z,15.59
2022-12-10T09:23:02.587Z,15.62
2022-12-10T09:25:29.616Z,15.79
2022-12-10T09:27:59.357Z,15.74
2022-12-10T09:30:26.917Z,15.76
2022-12-10T09:32:54.206Z,15.85
2022-12-10T09:35:21.198Z,15.84
2022-12-10T09:37:48.644Z,15.89
2022-12-10T09:40:27.642Z,16.14
2022-12-10T09:43:05.515Z,16.56
2022-12-10T09:45:42.860Z,16.71
2022-12-10T09:48:36.265Z,16.95
2022-12-10T09:51:06.608Z,17.40
2022-12-10T09:53:34.357Z,17.35
2022-12-10T09:56:02.088Z,17.41
2022-12-10T09:58:30.365Z,17.53
2022-12-10T10:01:04.516Z,17.69
2022-12-10T10:03:41.850Z,17.40
2022-12-10T10:06:15.772Z,17.77
2022-12-10T10:08:47.730Z,18.04
2022-12-10T10:11:22.129Z,17.92
2022-12-10T10:14:17.586Z,17.64
2022-12-10T10:16:50.477Z,17.90
2022-12-10T10:19:21.381Z,17.71
2022-12-10T10:21:51.215Z,17.82
2022-12-10T10:24:22.985Z,17.67
2022-12-10T10:26:51.404Z,17.75
2022-12-10T10:29:23.135Z,17.83
2022-12-10T10:32:15.196Z,17.90
2022-12-10T10:34:43.592Z,17.89
2022-12-10T10:37:32.575Z,17.71
2022-12-10T10:40:00.269Z,17.89
2022-12-10T10:42:36.462Z,17.53
2022-12-10T10:45:27.426Z,17.45
2022-12-10T10:48:12.125Z,17.40
2022-12-10T10:50:42.034Z,17.42
2022-12-10T10:53:31.277Z,17.56
2022-12-10T10:56:07.029Z,17.65
2022-12-10T10:58:34.736Z,17.73
2022-12-10T11:01:08.869Z,17.87
2022-12-10T11:03:45.849Z,17.32
2022-12-10T11:06:14.357Z,17.67
2022-12-10T11:08:44.553Z,17.32
2022-12-10T11:11:19.964Z,17.34
2022-12-10T11:13:47.582Z,17.11
2022-12-10T11:16:22.673Z,17.35
2022-12-10T11:19:02.424Z,17.51
2022-12-10T11:21:31.885Z,17.34
2022-12-10T11:23:59.759Z,17.63
2022-12-10T11:26:39.714Z,17.40
2022-12-10T11:29:33.819Z,17.41
2022-12-10T11:32:54.405Z,17.09
2022-12-10T11:36:07.719Z,17.22
2022-12-10T11:39:11.714Z,17.17
2022-12-10T11:41:48.222Z,17.17
2022-12-10T11:44:54.024Z,16.92
2022-12-10T11:47:46.767Z,16.92
2022-12-10T11:50:47.602Z,16.92
2022-12-10T11:53:32.093Z,17.16
2022-12-10T11:56:32.936Z,16.99
2022-12-10T11:59:11.697Z,17.02
2022-12-10T12:02:33.119Z,16.94
2022-12-10T12:05:17.918Z,16.86
2022-12-10T12:07:48.111Z,16.88
2022-12-10T12:10:30.056Z,16.84
2022-12-10T12:13:24.967Z,16.99
2022-12-10T12:15:59.416Z,17.01
2022-12-10T12:18:52.157Z,16.93
2022-12-10T12:21:20.113Z,16.97
2022-12-10T12:24:42.502Z,16.93
2022-12-10T12:27:28.241Z,16.73
2022-12-10T12:30:13.684Z,16.72
2022-12-10T12:32:49.271Z,16.73
2022-12-10T12:35:39.869Z,16.72
2022-12-10T12:38:42.861Z,16.67
2022-12-10T12:41:27.854Z,16.71
2022-12-10T12:44:31.193Z,16.56
2022-12-10T12:47:03.943Z,16.57
2022-12-10T12:49:36.786Z,16.54
2022-12-10T12:52:10.887Z,16.49
2022-12-10T12:54:38.243Z,16.49
2022-12-10T12:57:23.422Z,16.45
2022-12-10T13:00:05.120Z,16.42
2022-12-10T13:02:46.224Z,16.30
2022-12-10T13:05:34.323Z,16.34
2022-12-10T13:08:19.595Z,16.41
2022-12-10T13:11:01.083Z,16.41
2022-12-10T13:13:37.706Z,16.37
2022-12-10T13:16:23.087Z,16.32
2022-12-10T13:18:50.337Z,16.27
2022-12-10T13:21:29.129Z,16.28
2022-12-10T13:24:08.503Z,16.28
2022-12-10T13:26:35.680Z,16.26
2022-12-10T13:29:27.262Z,16.27
2022-12-10T13:32:04.665Z,16.19
2022-12-10T13:34:35.140Z,16.19
2022-12-10T13:37:01.999Z,16.23
2022-12-10T13:39:36.267Z,16.25
2022-12-10T13:42:24.774Z,16.21
2022-12-10T13:45:01.438Z,16.22
2022-12-10T13:47:33.712Z,16.19
2022-12-10T13:50:03.613Z,16.11
2022-12-10T13:52:41.647Z,16.16
2022-12-10T13:55:21.522Z,16.13
2022-12-10T13:58:00.554Z,16.12
2022-12-10T14:00:50.964Z,16.17
2022-12-10T14:03:39.472Z,16.05
2022-12-10T14:06:25.995Z,16.01
2022-12-10T14:09:05.266Z,16.04
2022-12-10T14:11:38.207Z,16.01
2022-12-10T14:14:11.288Z,16.09
2022-12-10T14:16:41.166Z,16.03
2022-12-10T14:19:13.961Z,15.99
2022-12-10T14:21:48.076Z,16.00
2022-12-10T14:24:39.951Z,16.07
2022-12-10T14:27:18.934Z,16.09
2022-12-10T14:29:51.333Z,16.03
2022-12-10T14:32:22.552Z,16.06
2022-12-10T14:34:58.963Z,16.05
2022-12-10T14:37:32.431Z,15.95
2022-12-10T14:39:59.942Z,16.01
2022-12-10T14:42:28.157Z,15.98
2022-12-10T14:45:01.904Z,15.96
2022-12-10T14:47:34.288Z,15.98
2022-12-10T14:50:02.152Z,15.96
2022-12-10T14:52:40.169Z,15.89
2022-12-10T14:55:07.731Z,16.01
2022-12-10T14:57:50.170Z,16.08
2022-12-10T15:00:20.869Z,16.09
2022-12-10T15:02:57.641Z,16.09
2022-12-10T15:05:28.321Z,16.09
2022-12-10T15:08:20.562Z,16.08
2022-12-10T15:10:57.516Z,16.06
2022-12-10T15:13:40.506Z,16.03
2022-12-10T15:16:15.995Z,15.97
2022-12-10T15:18:44.634Z,15.97
2022-12-10T15:21:18.453Z,15.94
2022-12-10T15:23:47.194Z,15.85
2022-12-10T15:26:28.223Z,15.88
2022-12-10T15:29:27.796Z,15.90
2022-12-10T15:31:59.037Z,15.89
2022-12-10T15:34:40.242Z,15.90
2022-12-10T15:37:16.114Z,15.85
2022-12-10T15:39:50.059Z,15.90
2022-12-10T15:42:42.837Z,15.88
2022-12-10T15:45:29.147Z,15.82
2022-12-10T15:48:03.638Z,15.77
2022-12-10T15:50:32.933Z,15.85
2022-12-10T15:53:00.180Z,15.67
2022-12-10T15:55:27.856Z,15.72
2022-12-10T15:57:55.066Z,15.63
2022-12-10T16:00:28.701Z,15.68
2022-12-10T16:03:04.234Z,15.69
2022-12-10T16:05:36.750Z,15.68
2022-12-10T16:08:21.021Z,15.63
2022-12-10T16:10:51.407Z,15.61
2022-12-10T16:13:27.149Z,15.54
2022-12-10T16:15:58.656Z,15.52
2022-12-10T16:18:30.573Z,15.55
2022-12-10T16:21:00.580Z,15.46
2022-12-10T16:23:27.659Z,15.42
2022-12-10T16:25:54.738Z,15.39
2022-12-10T16:28:23.499Z,15.43
2022-12-10T16:31:01.508Z,15.45
2022-12-10T16:33:29.203Z,15.46
2022-12-10T16:35:58.566Z,15.47
2022-12-10T16:38:26.950Z,15.44
2022-12-10T16:40:54.299Z,15.41
2022-12-10T16:43:27.121Z,15.38
2022-12-10T16:45:54.871Z,15.43
2022-12-10T16:48:22.968Z,15.44
2022-12-10T16:50:52.775Z,15.42
2022-12-10T16:53:24.019Z,15.40
2022-12-10T16:55:51.565Z,15.30
2022-12-10T16:58:19.421Z,15.32
2022-12-10T17:00:53.303Z,15.22
2022-12-10T17:03:25.161Z,15.17
2022-12-10T17:06:05.182Z,15.19
2022-12-10T17:08:32.483Z,15.23
2022-12-10T17:11:18.282Z,15.22
2022-12-10T17:13:46.678Z,15.18
2022-12-10T17:16:23.533Z,15.20
2022-12-10T17:18:51.330Z,15.20
2022-12-10T17:21:19.420Z,15.19
2022-12-10T17:26:36.300Z,15.13
2022-12-10T17:31:40.838Z,15.11
2022-12-10T17:34:12.349Z,15.08
2022-12-10T17:36:41.338Z,15.15
2022-12-10T17:41:54.643Z,15.09
2022-12-10T17:46:57.033Z,15.01
2022-12-10T17:49:24.073Z,15.13
2022-12-10T17:51:51.235Z,15.14
2022-12-10T17:54:18.633Z,15.01
2022-12-10T17:56:49.042Z,14.91
2022-12-10T17:59:16.182Z,14.95
2022-12-10T18:01:48.568Z,15.05
2022-12-10T18:04:16.306Z,15.03
2022-12-10T18:06:44.051Z,14.94
2022-12-10T18:09:14.689Z,15.05
2022-12-10T18:11:44.819Z,14.89
2022-12-10T18:14:19.763Z,14.99
2022-12-10T18:16:48.053Z,15.05
2022-12-10T18:19:16.453Z,15.04
2022-12-10T18:21:47.000Z,15.18
2022-12-10T18:24:17.895Z,15.25
2022-12-10T18:26:45.475Z,15.22
2022-12-10T18:29:16.234Z,15.22
2022-12-10T18:31:45.593Z,15.19
2022-12-10T18:34:15.561Z,15.15
2022-12-10T18:36:44.991Z,15.17
2022-12-10T18:39:25.681Z,15.18
2022-12-10T18:41:54.036Z,15.19
2022-12-10T18:44:24.648Z,15.18
2022-12-10T18:46:53.428Z,15.16
2022-12-10T18:49:21.649Z,15.24
2022-12-10T18:51:48.822Z,15.24
2022-12-10T18:54:16.076Z,15.19
2022-12-10T18:56:45.230Z,15.17
2022-12-10T18:59:19.533Z,15.16
2022-12-10T19:01:47.016Z,15.16
2022-12-10T19:04:15.080Z,15.05
2022-12-10T19:06:43.572Z,15.13
2022-12-10T19:09:18.604Z,15.12
2022-12-10T19:11:48.835Z,15.08
2022-12-10T19:14:16.811Z,15.02
2022-12-10T19:16:44.263Z,15.04
2022-12-10T19:19:13.202Z,15.04
2022-12-10T19:21:40.741Z,14.96
2022-12-10T19:24:08.801Z,14.97
2022-12-10T19:26:38.606Z,14.88
2022-12-10T19:31:41.777Z,14.88
2022-12-10T19:34:09.025Z,14.90
2022-12-10T19:36:39.460Z,14.90
2022-12-10T19:39:06.805Z,14.85
2022-12-10T19:41:36.964Z,14.88
2022-12-10T19:44:04.601Z,15.04
2022-12-10T19:46:32.089Z,14.94
2022-12-10T19:49:02.221Z,14.90
2022-12-10T19:51:29.786Z,14.81
2022-12-10T19:53:57.913Z,14.95
2022-12-10T19:56:30.462Z,14.87
2022-12-10T19:59:00.136Z,14.80
2022-12-10T20:01:28.804Z,14.73
2022-12-10T20:03:57.098Z,14.67
2022-12-10T20:06:32.707Z,14.72
2022-12-10T20:09:03.584Z,14.59
2022-12-10T20:11:30.753Z,14.64
2022-12-10T20:13:58.217Z,14.78
2022-12-10T20:16:30.217Z,14.66
2022-12-10T20:18:58.736Z,14.64
2022-12-10T20:21:26.454Z,14.58
2022-12-10T20:23:58.351Z,14.72
2022-12-10T20:26:36.462Z,14.73
2022-12-10T20:29:05.178Z,14.73
2022-12-10T20:31:32.241Z,14.71
2022-12-10T20:33:59.702Z,14.69
2022-12-10T20:36:28.162Z,14.68
2022-12-10T20:38:55.303Z,14.59
2022-12-10T20:41:22.517Z,14.53
2022-12-10T20:43:51.732Z,14.58
2022-12-10T20:46:24.983Z,14.51
2022-12-10T20:48:52.481Z,14.50
2022-12-10T20:51:19.990Z,14.48
2022-12-10T20:53:48.186Z,14.41
2022-12-10T20:56:18.534Z,14.44
2022-12-10T20:58:46.797Z,14.37
2022-12-10T21:01:15.177Z,14.31
2022-12-10T21:03:45.288Z,14.30
2022-12-10T21:06:25.729Z,14.18
2022-12-10T21:08:54.014Z,14.22
2022-12-10T21:11:31.538Z,14.19
2022-12-10T21:13:58.863Z,14.32
2022-12-10T21:16:29.471Z,14.42
2022-12-10T21:18:57.253Z,14.37
2022-12-10T21:21:27.217Z,14.38
2022-12-10T21:23:58.885Z,14.35
2022-12-10T21:26:26.590Z,14.37
2022-12-10T21:28:54.016Z,14.28
2022-12-10T21:31:24.306Z,14.28
2022-12-10T21:33:52.037Z,14.26
2022-12-10T21:36:23.751Z,14.30
2022-12-10T21:38:52.685Z,14.30
2022-12-10T21:41:44.159Z,14.27
2022-12-10T21:44:12.158Z,14.21
2022-12-10T21:46:40.466Z,14.18
2022-12-10T21:49:08.941Z,14.17
2022-12-10T21:51:40.028Z,14.09
2022-12-10T21:54:09.023Z,13.98
2022-12-10T21:56:36.997Z,14.08
2022-12-10T21:59:04.730Z,13.88
2022-12-10T22:01:32.132Z,13.86
2022-12-10T22:03:59.243Z,13.81
2022-12-10T22:06:28.438Z,13.85
2022-12-10T22:08:56.418Z,13.74
2022-12-10T22:11:23.471Z,13.68
2022-12-10T22:13:54.397Z,13.70
2022-12-10T22:16:21.681Z,13.73
2022-12-10T22:18:48.910Z,13.81
2022-12-10T22:21:21.874Z,13.77
2022-12-10T22:23:49.048Z,13.91
2022-12-10T22:26:16.155Z,13.84
2022-12-10T22:28:43.159Z,13.83
2022-12-10T22:33:33.708Z,13.65
2022-12-10T22:36:00.902Z,13.38
2022-12-10T22:38:28.347Z,13.39
2022-12-10T22:40:55.575Z,13.35
2022-12-10T22:43:49.888Z,13.37
2022-12-10T22:46:13.055Z,13.39
2022-12-10T22:48:40.766Z,13.35
2022-12-10T22:51:08.461Z,13.31
2022-12-10T22:53:36.221Z,13.38
2022-12-10T22:56:06.213Z,13.41
2022-12-10T22:58:33.927Z,13.46
2022-12-10T23:01:01.703Z,13.51
2022-12-10T23:03:29.467Z,13.53
2022-12-10T23:05:57.081Z,13.63
2022-12-10T23:08:25.074Z,13.61
2022-12-10T23:10:52.782Z,13.62
2022-12-10T23:13:22.848Z,13.64
2022-12-10T23:15:51.461Z,13.72
2022-12-10T23:18:19.708Z,13.66
2022-12-10T23:20:50.155Z,13.75
2022-12-10T23:23:19.469Z,13.72
2022-12-10T23:25:46.991Z,13.83
2022-12-10T23:28:15.175Z,13.64
2022-12-10T23:30:42.955Z,13.73
2022-12-10T23:33:10.691Z,13.66
2022-12-10T23:35:44.083Z,13.67
2022-12-10T23:38:11.850Z,13.50
2022-12-10T23:40:44.129Z,13.59
2022-12-10T23:43:12.983Z,13.63
2022-12-10T23:45:43.980Z,13.59
2022-12-10T23:48:11.341Z,13.51
2022-12-10T23:50:39.071Z,13.40
2022-12-10T23:53:06.862Z,13.45
2022-12-10T23:55:33.955Z,13.33
2022-12-10T23:58:01.163Z,13.38
